UAE840 OPKC-OMDB
Flight info
| Callsign | UAE840 |
|---|---|
| Flight time | 1h 57m |
| Altitude | 40000 |
| Route | MELOM1F MELOM A454 PASOV B540 KUPMA/N0464F240 B540 MIVEK P574 IMPED IMPED3C |
| Aircraft | B77W/H-V/N |
Departure
| Time | 2026-05-04 09:34 |
|---|---|
| Airport | Jinnah International Airport (OPKC) |
Arrival
| Time | 2026-05-04 11:31 |
|---|---|
| Airport | Dubai International Airport (OMDB) |
| Time | Latitude | Longitude | Altitude | Speed | Heading |
|---|---|---|---|---|---|
| 2026-05-04 08:54 | 24.90331 | 67.16904 | 101 ft | 0 kts | 163° |
| 2026-05-04 09:11 | 24.90327 | 67.16905 | 101 ft | 1 kts | 163° |
| 2026-05-04 09:11 | 24.90317 | 67.16909 | 102 ft | 2 kts | 163° |
| 2026-05-04 09:12 | 24.90316 | 67.16909 | 102 ft | 0 kts | 163° |
| 2026-05-04 09:28 | 24.90319 | 67.16908 | 101 ft | 2 kts | 163° |
| 2026-05-04 09:28 | 24.90335 | 67.16903 | 112 ft | 2 kts | 163° |
| 2026-05-04 09:29 | 24.90351 | 67.16898 | 96 ft | 2 kts | 163° |
| 2026-05-04 09:29 | 24.90367 | 67.16892 | 99 ft | 2 kts | 163° |
| 2026-05-04 09:29 | 24.90383 | 67.16887 | 98 ft | 2 kts | 163° |
| 2026-05-04 09:29 | 24.90399 | 67.16882 | 99 ft | 2 kts | 163° |
| 2026-05-04 09:30 | 24.90408 | 67.16879 | 100 ft | 0 kts | 163° |
| 2026-05-04 09:30 | 24.90405 | 67.16882 | 100 ft | 1 kts | 150° |
| 2026-05-04 09:30 | 24.90404 | 67.16914 | 100 ft | 11 kts | 75° |
| 2026-05-04 09:30 | 24.90471 | 67.17017 | 104 ft | 16 kts | 24° |
| 2026-05-04 09:31 | 24.90575 | 67.17105 | 104 ft | 23 kts | 66° |
| 2026-05-04 09:31 | 24.90623 | 67.17272 | 103 ft | 23 kts | 73° |
| 2026-05-04 09:31 | 24.90630 | 67.17297 | 105 ft | 1 kts | 73° |
| 2026-05-04 09:31 | 24.90640 | 67.17336 | 99 ft | 11 kts | 73° |
| 2026-05-04 09:32 | 24.90708 | 67.17430 | 106 ft | 21 kts | 34° |
| 2026-05-04 09:32 | 24.90825 | 67.17476 | 106 ft | 0 kts | 341° |
| 2026-05-04 09:34 | 24.90305 | 67.15111 | 96 ft | 215 kts | 259° |
| 2026-05-04 09:34 | 24.89849 | 67.13643 | 1405 ft | 181 kts | 245° |
| 2026-05-04 09:34 | 24.89437 | 67.12352 | 2618 ft | 181 kts | 270° |
| 2026-05-04 09:34 | 24.89633 | 67.10963 | 3420 ft | 194 kts | 276° |
| 2026-05-04 09:35 | 24.89302 | 67.09534 | 4077 ft | 232 kts | 237° |
| 2026-05-04 09:35 | 24.87929 | 67.08335 | 4924 ft | 275 kts | 210° |
| 2026-05-04 09:35 | 24.86130 | 67.07330 | 5630 ft | 296 kts | 213° |
| 2026-05-04 09:35 | 24.84411 | 67.06066 | 6278 ft | 299 kts | 221° |
| 2026-05-04 09:37 | 24.78702 | 66.91771 | 11815 ft | 352 kts | 278° |
| 2026-05-04 09:37 | 24.79020 | 66.89074 | 12687 ft | 358 kts | 278° |
| 2026-05-04 09:38 | 24.79323 | 66.86327 | 13562 ft | 364 kts | 278° |
| 2026-05-04 09:38 | 24.79622 | 66.83535 | 14363 ft | 369 kts | 278° |
| 2026-05-04 09:38 | 24.80202 | 66.80800 | 15135 ft | 368 kts | 293° |
| 2026-05-04 09:38 | 24.81486 | 66.78379 | 16002 ft | 375 kts | 308° |
| 2026-05-04 09:39 | 24.83315 | 66.76294 | 16897 ft | 381 kts | 315° |
| 2026-05-04 09:39 | 24.85260 | 66.74273 | 17797 ft | 388 kts | 316° |
| 2026-05-04 09:39 | 24.87251 | 66.72228 | 18628 ft | 394 kts | 316° |
| 2026-05-04 09:39 | 24.89266 | 66.70149 | 19436 ft | 398 kts | 316° |
| 2026-05-04 09:40 | 24.91287 | 66.68046 | 20275 ft | 400 kts | 316° |
| 2026-05-04 09:40 | 24.93306 | 66.65928 | 21126 ft | 402 kts | 316° |
| 2026-05-04 09:40 | 24.95336 | 66.63787 | 22014 ft | 404 kts | 316° |
| 2026-05-04 09:40 | 24.97373 | 66.61633 | 22919 ft | 405 kts | 316° |
| 2026-05-04 09:41 | 24.99386 | 66.59502 | 23731 ft | 406 kts | 316° |
| 2026-05-04 09:42 | 25.08473 | 66.41280 | 29635 ft | 386 kts | 287° |
| 2026-05-04 09:43 | 25.09079 | 66.38420 | 30424 ft | 379 kts | 287° |
| 2026-05-04 09:43 | 25.09682 | 66.35606 | 31209 ft | 372 kts | 287° |
| 2026-05-04 09:43 | 25.10279 | 66.32855 | 32006 ft | 364 kts | 287° |
| 2026-05-04 09:43 | 25.10867 | 66.30165 | 32846 ft | 355 kts | 287° |
| 2026-05-04 09:44 | 25.11436 | 66.27576 | 33673 ft | 345 kts | 287° |
| 2026-05-04 09:44 | 25.11996 | 66.25034 | 34415 ft | 334 kts | 287° |
| 2026-05-04 09:44 | 25.12536 | 66.22582 | 35166 ft | 322 kts | 287° |
| 2026-05-04 09:46 | 25.16131 | 66.06341 | 36988 ft | 321 kts | 286° |
| 2026-05-04 09:46 | 25.16648 | 66.03977 | 37563 ft | 313 kts | 286° |
| 2026-05-04 09:46 | 25.17156 | 66.01655 | 37654 ft | 318 kts | 286° |
| 2026-05-04 09:47 | 25.18225 | 65.96791 | 37648 ft | 332 kts | 286° |
| 2026-05-04 09:49 | 25.22285 | 65.78195 | 37685 ft | 380 kts | 285° |
| 2026-05-04 09:49 | 25.22908 | 65.75330 | 37683 ft | 386 kts | 285° |
| 2026-05-04 09:51 | 25.27523 | 65.54027 | 37682 ft | 426 kts | 285° |
| 2026-05-04 09:51 | 25.28911 | 65.47592 | 37679 ft | 434 kts | 285° |
| 2026-05-04 09:52 | 25.30321 | 65.41046 | 37683 ft | 440 kts | 285° |
| 2026-05-04 09:52 | 25.31736 | 65.34439 | 37681 ft | 446 kts | 285° |
| 2026-05-04 09:53 | 25.33163 | 65.27736 | 37683 ft | 450 kts | 285° |
| 2026-05-04 09:53 | 25.34597 | 65.21003 | 37678 ft | 453 kts | 285° |
| 2026-05-04 09:54 | 25.36041 | 65.14207 | 37754 ft | 451 kts | 285° |
| 2026-05-04 09:54 | 25.36752 | 65.10850 | 38035 ft | 446 kts | 285° |
| 2026-05-04 09:54 | 25.37459 | 65.07513 | 38294 ft | 443 kts | 285° |
| 2026-05-04 09:54 | 25.38160 | 65.04207 | 38495 ft | 440 kts | 285° |
| 2026-05-04 09:55 | 25.38857 | 65.00914 | 38724 ft | 437 kts | 285° |
| 2026-05-04 09:55 | 25.39549 | 64.97651 | 38944 ft | 434 kts | 284° |
| 2026-05-04 09:55 | 25.40234 | 64.94411 | 39160 ft | 431 kts | 284° |
| 2026-05-04 09:55 | 25.40914 | 64.91191 | 39376 ft | 428 kts | 284° |
| 2026-05-04 09:56 | 25.41570 | 64.88022 | 39572 ft | 426 kts | 282° |
| 2026-05-04 09:56 | 25.41810 | 64.84739 | 39611 ft | 432 kts | 269° |
| 2026-05-04 09:56 | 25.41310 | 64.81433 | 39668 ft | 439 kts | 258° |
| 2026-05-04 09:57 | 25.39321 | 64.74979 | 39682 ft | 444 kts | 256° |
| 2026-05-04 09:57 | 25.37484 | 64.68416 | 39691 ft | 448 kts | 257° |
| 2026-05-04 09:58 | 25.35684 | 64.61792 | 39688 ft | 452 kts | 257° |
| 2026-05-04 09:58 | 25.33858 | 64.55150 | 39690 ft | 455 kts | 257° |
| 2026-05-04 10:00 | 25.26295 | 64.28118 | 39687 ft | 463 kts | 257° |
| 2026-05-04 10:04 | 25.12864 | 63.80639 | 39698 ft | 460 kts | 256° |
| 2026-05-04 10:04 | 25.10942 | 63.73895 | 39704 ft | 461 kts | 256° |
| 2026-05-04 10:05 | 25.09012 | 63.67131 | 39697 ft | 461 kts | 256° |
| 2026-05-04 10:05 | 25.07079 | 63.60377 | 39703 ft | 462 kts | 256° |
| 2026-05-04 10:06 | 25.05141 | 63.53614 | 39705 ft | 462 kts | 256° |
| 2026-05-04 10:06 | 25.03195 | 63.46837 | 39703 ft | 463 kts | 256° |
| 2026-05-04 10:08 | 24.96695 | 63.24297 | 39719 ft | 463 kts | 256° |
| 2026-05-04 10:08 | 24.94412 | 63.16415 | 39705 ft | 464 kts | 256° |
| 2026-05-04 10:09 | 24.92764 | 63.10736 | 39718 ft | 464 kts | 256° |
| 2026-05-04 10:09 | 24.90803 | 63.03989 | 39716 ft | 464 kts | 256° |
| 2026-05-04 10:10 | 24.88830 | 62.97211 | 39715 ft | 464 kts | 256° |
| 2026-05-04 10:10 | 24.86854 | 62.90438 | 39716 ft | 464 kts | 256° |
| 2026-05-04 10:11 | 24.84887 | 62.83707 | 39713 ft | 464 kts | 256° |
| 2026-05-04 10:11 | 24.82902 | 62.76930 | 39713 ft | 464 kts | 256° |
| 2026-05-04 10:12 | 24.80917 | 62.70162 | 39712 ft | 464 kts | 256° |
| 2026-05-04 10:12 | 24.78930 | 62.63399 | 39714 ft | 464 kts | 255° |
| 2026-05-04 10:13 | 24.76937 | 62.56632 | 39714 ft | 464 kts | 255° |
| 2026-05-04 10:13 | 24.74955 | 62.49913 | 39716 ft | 464 kts | 255° |
| 2026-05-04 10:14 | 24.72958 | 62.43155 | 39718 ft | 464 kts | 255° |
| 2026-05-04 10:16 | 24.64945 | 62.16160 | 39716 ft | 465 kts | 255° |
| 2026-05-04 10:16 | 24.62931 | 62.09407 | 39718 ft | 465 kts | 255° |
| 2026-05-04 10:17 | 24.60914 | 62.02655 | 39716 ft | 465 kts | 255° |
| 2026-05-04 10:19 | 24.52815 | 61.75664 | 39716 ft | 465 kts | 255° |
| 2026-05-04 10:19 | 24.50780 | 61.68913 | 39717 ft | 465 kts | 255° |
| 2026-05-04 10:20 | 24.48741 | 61.62159 | 39718 ft | 465 kts | 255° |
| 2026-05-04 10:20 | 24.46701 | 61.55412 | 39717 ft | 465 kts | 255° |
| 2026-05-04 10:21 | 24.44667 | 61.48695 | 39715 ft | 465 kts | 255° |
| 2026-05-04 10:21 | 24.42622 | 61.41948 | 39716 ft | 465 kts | 255° |
| 2026-05-04 10:22 | 24.39591 | 61.31817 | 39713 ft | 464 kts | 258° |
| 2026-05-04 10:23 | 24.38134 | 61.24946 | 39716 ft | 462 kts | 260° |
| 2026-05-04 10:25 | 24.32516 | 60.97458 | 39717 ft | 462 kts | 260° |
| 2026-05-04 10:25 | 24.31070 | 60.90577 | 39714 ft | 462 kts | 260° |
| 2026-05-04 10:26 | 24.29621 | 60.83692 | 39712 ft | 462 kts | 260° |
| 2026-05-04 10:26 | 24.28178 | 60.76848 | 39717 ft | 462 kts | 259° |
| 2026-05-04 10:27 | 24.26726 | 60.69977 | 39715 ft | 462 kts | 259° |
| 2026-05-04 10:27 | 24.25272 | 60.63111 | 39722 ft | 462 kts | 259° |
| 2026-05-04 10:28 | 24.23812 | 60.56233 | 39720 ft | 462 kts | 259° |
| 2026-05-04 10:28 | 24.22352 | 60.49374 | 39720 ft | 462 kts | 259° |
| 2026-05-04 10:29 | 24.20898 | 60.42555 | 39719 ft | 462 kts | 259° |
| 2026-05-04 10:29 | 24.19429 | 60.35687 | 39720 ft | 462 kts | 259° |
| 2026-05-04 10:30 | 24.17959 | 60.28824 | 39719 ft | 462 kts | 259° |
| 2026-05-04 10:30 | 24.16482 | 60.21949 | 39723 ft | 462 kts | 259° |
| 2026-05-04 10:31 | 24.15017 | 60.15141 | 39722 ft | 462 kts | 259° |
| 2026-05-04 10:32 | 24.09823 | 59.91137 | 39721 ft | 462 kts | 259° |
| 2026-05-04 10:33 | 24.08332 | 59.84283 | 39722 ft | 462 kts | 259° |
| 2026-05-04 10:33 | 24.06845 | 59.77460 | 39721 ft | 463 kts | 259° |
| 2026-05-04 10:34 | 24.05344 | 59.70589 | 39722 ft | 463 kts | 259° |
| 2026-05-04 10:34 | 24.03852 | 59.63776 | 39723 ft | 463 kts | 259° |
| 2026-05-04 10:35 | 24.02346 | 59.56910 | 39723 ft | 463 kts | 259° |
| 2026-05-04 10:35 | 24.00837 | 59.50047 | 39724 ft | 463 kts | 259° |
| 2026-05-04 10:36 | 23.99328 | 59.43201 | 39722 ft | 463 kts | 259° |
| 2026-05-04 10:36 | 23.97816 | 59.36352 | 39722 ft | 463 kts | 259° |
| 2026-05-04 10:37 | 23.96309 | 59.29534 | 39722 ft | 463 kts | 259° |
| 2026-05-04 10:37 | 23.94793 | 59.22686 | 39722 ft | 463 kts | 259° |
| 2026-05-04 10:39 | 23.96408 | 59.02643 | 39733 ft | 452 kts | 290° |
| 2026-05-04 10:39 | 23.97461 | 58.99382 | 39727 ft | 453 kts | 289° |
| 2026-05-04 10:40 | 23.99491 | 58.92918 | 39683 ft | 440 kts | 289° |
| 2026-05-04 10:40 | 24.00481 | 58.89782 | 39528 ft | 433 kts | 289° |
| 2026-05-04 10:40 | 24.01467 | 58.86680 | 39371 ft | 430 kts | 289° |
| 2026-05-04 10:40 | 24.02455 | 58.83585 | 39248 ft | 431 kts | 289° |
| 2026-05-04 10:41 | 24.03449 | 58.80481 | 39121 ft | 434 kts | 289° |
| 2026-05-04 10:41 | 24.04451 | 58.77352 | 38990 ft | 437 kts | 289° |
| 2026-05-04 10:41 | 24.05447 | 58.74239 | 38863 ft | 438 kts | 289° |
| 2026-05-04 10:41 | 24.06454 | 58.71087 | 38693 ft | 440 kts | 289° |
| 2026-05-04 10:42 | 24.07471 | 58.67903 | 38188 ft | 445 kts | 289° |
| 2026-05-04 10:42 | 24.08490 | 58.64712 | 37670 ft | 440 kts | 289° |
| 2026-05-04 10:42 | 24.09497 | 58.61554 | 37191 ft | 435 kts | 289° |
| 2026-05-04 10:42 | 24.10488 | 58.58437 | 36711 ft | 431 kts | 289° |
| 2026-05-04 10:43 | 24.11471 | 58.55335 | 36241 ft | 429 kts | 289° |
| 2026-05-04 10:44 | 24.18397 | 58.33384 | 33644 ft | 436 kts | 290° |
| 2026-05-04 10:45 | 24.19053 | 58.31302 | 33410 ft | 435 kts | 290° |
| 2026-05-04 10:45 | 24.20039 | 58.28169 | 33059 ft | 435 kts | 290° |
| 2026-05-04 10:45 | 24.21025 | 58.25035 | 32722 ft | 435 kts | 290° |
| 2026-05-04 10:45 | 24.22344 | 58.20840 | 32259 ft | 442 kts | 290° |
| 2026-05-04 10:46 | 24.23024 | 58.18679 | 32043 ft | 445 kts | 290° |
| 2026-05-04 10:46 | 24.24019 | 58.15507 | 31717 ft | 446 kts | 290° |
| 2026-05-04 10:46 | 24.25032 | 58.12277 | 31388 ft | 446 kts | 290° |
| 2026-05-04 10:46 | 24.26038 | 58.09065 | 31059 ft | 446 kts | 290° |
| 2026-05-04 10:47 | 24.27043 | 58.05853 | 30736 ft | 446 kts | 290° |
| 2026-05-04 10:47 | 24.28049 | 58.02636 | 30418 ft | 445 kts | 290° |
| 2026-05-04 10:47 | 24.29055 | 57.99415 | 30095 ft | 445 kts | 290° |
| 2026-05-04 10:47 | 24.30059 | 57.96200 | 29812 ft | 443 kts | 290° |
| 2026-05-04 10:49 | 24.36998 | 57.73906 | 29730 ft | 443 kts | 290° |
| 2026-05-04 10:50 | 24.38985 | 57.67499 | 29719 ft | 442 kts | 289° |
| 2026-05-04 10:51 | 24.45852 | 57.45273 | 27660 ft | 433 kts | 289° |
| 2026-05-04 10:52 | 24.46803 | 57.42185 | 27242 ft | 430 kts | 289° |
| 2026-05-04 10:52 | 24.47759 | 57.39080 | 26824 ft | 428 kts | 289° |
| 2026-05-04 10:52 | 24.48714 | 57.35978 | 26415 ft | 427 kts | 289° |
| 2026-05-04 10:54 | 24.55293 | 57.14558 | 23682 ft | 421 kts | 289° |
| 2026-05-04 10:54 | 24.56224 | 57.11516 | 23314 ft | 420 kts | 289° |
| 2026-05-04 10:56 | 24.62654 | 56.90459 | 20346 ft | 406 kts | 289° |
| 2026-05-04 10:56 | 24.63550 | 56.87512 | 19956 ft | 403 kts | 289° |
| 2026-05-04 10:56 | 24.64447 | 56.84610 | 19685 ft | 396 kts | 291° |
| 2026-05-04 10:57 | 24.65625 | 56.81933 | 19390 ft | 391 kts | 301° |
| 2026-05-04 10:57 | 24.67079 | 56.79420 | 19132 ft | 389 kts | 302° |
| 2026-05-04 10:57 | 24.68538 | 56.76898 | 18863 ft | 391 kts | 302° |
| 2026-05-04 10:57 | 24.69988 | 56.74348 | 18600 ft | 393 kts | 301° |
| 2026-05-04 10:58 | 24.71419 | 56.71791 | 18338 ft | 392 kts | 301° |
| 2026-05-04 10:58 | 24.72838 | 56.69231 | 18067 ft | 391 kts | 301° |
| 2026-05-04 10:58 | 24.74247 | 56.66676 | 17771 ft | 389 kts | 301° |
| 2026-05-04 10:58 | 24.75645 | 56.64130 | 17471 ft | 387 kts | 301° |
| 2026-05-04 10:59 | 24.77036 | 56.61597 | 17166 ft | 386 kts | 301° |
| 2026-05-04 10:59 | 24.78420 | 56.59074 | 16863 ft | 383 kts | 301° |
| 2026-05-04 10:59 | 24.79797 | 56.56563 | 16565 ft | 381 kts | 301° |
| 2026-05-04 10:59 | 24.81163 | 56.54071 | 16278 ft | 379 kts | 301° |
| 2026-05-04 11:00 | 24.81914 | 56.52705 | 16109 ft | 378 kts | 301° |
| 2026-05-04 11:01 | 24.88458 | 56.36995 | 14227 ft | 333 kts | 268° |
| 2026-05-04 11:02 | 24.88294 | 56.34475 | 13955 ft | 326 kts | 268° |
| 2026-05-04 11:02 | 24.88152 | 56.31999 | 13670 ft | 321 kts | 269° |
| 2026-05-04 11:05 | 24.98184 | 56.05570 | 11988 ft | 256 kts | 311° |
| 2026-05-04 11:06 | 24.99402 | 56.04126 | 11994 ft | 257 kts | 313° |
| 2026-05-04 11:06 | 25.00623 | 56.02709 | 11990 ft | 258 kts | 313° |
| 2026-05-04 11:06 | 25.01852 | 56.01260 | 11994 ft | 259 kts | 312° |
| 2026-05-04 11:06 | 25.03072 | 55.99798 | 11987 ft | 260 kts | 312° |
| 2026-05-04 11:08 | 25.11637 | 55.89346 | 9898 ft | 269 kts | 312° |
| 2026-05-04 11:10 | 25.18896 | 55.78641 | 8806 ft | 256 kts | 302° |
| 2026-05-04 11:12 | 25.25019 | 55.67615 | 7833 ft | 230 kts | 303° |
| 2026-05-04 11:12 | 25.25861 | 55.66107 | 7574 ft | 229 kts | 303° |
| 2026-05-04 11:12 | 25.26691 | 55.64617 | 7330 ft | 226 kts | 303° |
| 2026-05-04 11:12 | 25.27507 | 55.63151 | 7043 ft | 226 kts | 303° |
| 2026-05-04 11:13 | 25.28334 | 55.61668 | 6751 ft | 227 kts | 303° |
| 2026-05-04 11:13 | 25.29091 | 55.60152 | 6441 ft | 225 kts | 289° |
| 2026-05-04 11:13 | 25.29174 | 55.58421 | 6133 ft | 231 kts | 260° |
| 2026-05-04 11:13 | 25.28522 | 55.56820 | 6034 ft | 227 kts | 239° |
| 2026-05-04 11:16 | 25.17813 | 55.64701 | 3877 ft | 229 kts | 120° |
| 2026-05-04 11:16 | 25.16979 | 55.66201 | 3738 ft | 228 kts | 120° |
| 2026-05-04 11:16 | 25.16153 | 55.67683 | 3595 ft | 226 kts | 120° |
| 2026-05-04 11:17 | 25.15331 | 55.69158 | 3463 ft | 225 kts | 120° |
| 2026-05-04 11:17 | 25.14512 | 55.70628 | 3317 ft | 223 kts | 120° |
| 2026-05-04 11:19 | 25.08856 | 55.80747 | 3008 ft | 219 kts | 120° |
| 2026-05-04 11:19 | 25.08053 | 55.82181 | 3010 ft | 220 kts | 120° |
| 2026-05-04 11:19 | 25.07248 | 55.83620 | 3001 ft | 220 kts | 120° |
| 2026-05-04 11:19 | 25.06272 | 55.84944 | 2997 ft | 228 kts | 148° |
| 2026-05-04 11:20 | 25.04834 | 55.85424 | 2997 ft | 216 kts | 189° |
| 2026-05-04 11:20 | 25.03441 | 55.84856 | 3044 ft | 221 kts | 215° |
| 2026-05-04 11:20 | 25.02090 | 55.83948 | 3034 ft | 230 kts | 217° |
| 2026-05-04 11:20 | 25.01009 | 55.82706 | 3004 ft | 222 kts | 250° |
| 2026-05-04 11:22 | 25.04839 | 55.73241 | 2755 ft | 204 kts | 304° |
| 2026-05-04 11:22 | 25.05602 | 55.71921 | 2754 ft | 204 kts | 303° |
| 2026-05-04 11:23 | 25.06352 | 55.70603 | 2768 ft | 203 kts | 304° |
| 2026-05-04 11:23 | 25.07098 | 55.69265 | 2758 ft | 203 kts | 303° |
| 2026-05-04 11:24 | 25.11646 | 55.61069 | 2347 ft | 206 kts | 302° |
| 2026-05-04 11:25 | 25.12380 | 55.59745 | 2346 ft | 197 kts | 302° |
| 2026-05-04 11:25 | 25.13103 | 55.58445 | 2345 ft | 203 kts | 302° |
| 2026-05-04 11:25 | 25.13841 | 55.57115 | 2358 ft | 202 kts | 302° |
| 2026-05-04 11:26 | 25.15249 | 55.54569 | 2351 ft | 187 kts | 302° |
| 2026-05-04 11:27 | 25.19868 | 55.46233 | 1412 ft | 183 kts | 301° |
| 2026-05-04 11:28 | 25.20545 | 55.45005 | 1160 ft | 188 kts | 301° |
| 2026-05-04 11:28 | 25.21213 | 55.43800 | 916 ft | 179 kts | 302° |
| 2026-05-04 11:28 | 25.21842 | 55.42662 | 701 ft | 173 kts | 300° |
| 2026-05-04 11:28 | 25.22175 | 55.42058 | 579 ft | 165 kts | 300° |
| 2026-05-04 11:29 | 25.22487 | 55.41496 | 478 ft | 161 kts | 299° |
| 2026-05-04 11:29 | 25.22762 | 55.41001 | 427 ft | 168 kts | 300° |
| 2026-05-04 11:29 | 25.23185 | 55.40232 | 364 ft | 179 kts | 298° |
| 2026-05-04 11:29 | 25.23769 | 55.39145 | 95 ft | 183 kts | 300° |
| 2026-05-04 11:31 | 25.25050 | 55.36405 | 27 ft | 20 kts | 206° |
| 2026-05-04 11:33 | 25.24889 | 55.36305 | 27 ft | 0 kts | 210° |
| 2026-05-04 11:33 | 25.20753 | 55.44628 | 1059 ft | 186 kts | 301° |
| 2026-05-04 11:34 | 25.22980 | 55.40607 | 401 ft | 175 kts | 299° |
| 2026-05-04 11:34 | 25.23596 | 55.39458 | 198 ft | 183 kts | 300° |
| 2026-05-04 11:34 | 25.24238 | 55.38295 | 59 ft | 160 kts | 304° |
| 2026-05-04 11:34 | 25.24650 | 55.37575 | 41 ft | 118 kts | 301° |
| 2026-05-04 11:35 | 25.24813 | 55.37287 | 39 ft | 96 kts | 301° |